sensor_id;sensor_type;location;lat;lon;timestamp;P1;durP1;ratioP1;P2;durP2;ratioP2
23676;SDS011;31493;49.058;12.190;2023-04-07T00:01:16;13.93;;;8.57;;
23676;SDS011;31493;49.058;12.190;2023-04-07T00:03:43;14.93;;;8.40;;
23676;SDS011;31493;49.058;12.190;2023-04-07T00:06:10;13.02;;;8.55;;
23676;SDS011;31493;49.058;12.190;2023-04-07T00:08:38;16.85;;;9.52;;
23676;SDS011;31493;49.058;12.190;2023-04-07T00:11:05;11.52;;;8.45;;
23676;SDS011;31493;49.058;12.190;2023-04-07T00:13:33;13.40;;;8.77;;
23676;SDS011;31493;49.058;12.190;2023-04-07T00:16:00;15.35;;;9.52;;
23676;SDS011;31493;49.058;12.190;2023-04-07T00:18:27;14.02;;;8.65;;
23676;SDS011;31493;49.058;12.190;2023-04-07T00:20:54;12.88;;;8.68;;
23676;SDS011;31493;49.058;12.190;2023-04-07T00:23:21;14.00;;;8.90;;
23676;SDS011;31493;49.058;12.190;2023-04-07T00:25:50;16.35;;;8.82;;
23676;SDS011;31493;49.058;12.190;2023-04-07T00:28:17;13.60;;;8.45;;
23676;SDS011;31493;49.058;12.190;2023-04-07T00:30:44;14.55;;;8.90;;
23676;SDS011;31493;49.058;12.190;2023-04-07T00:33:11;15.18;;;9.20;;
23676;SDS011;31493;49.058;12.190;2023-04-07T00:35:38;17.20;;;8.82;;
23676;SDS011;31493;49.058;12.190;2023-04-07T00:38:05;12.35;;;8.52;;
23676;SDS011;31493;49.058;12.190;2023-04-07T00:40:33;15.13;;;9.35;;
23676;SDS011;31493;49.058;12.190;2023-04-07T00:43:01;15.25;;;9.75;;
23676;SDS011;31493;49.058;12.190;2023-04-07T00:45:28;14.00;;;8.32;;
23676;SDS011;31493;49.058;12.190;2023-04-07T00:47:55;11.23;;;8.38;;
23676;SDS011;31493;49.058;12.190;2023-04-07T00:50:23;14.48;;;8.98;;
23676;SDS011;31493;49.058;12.190;2023-04-07T00:52:51;13.98;;;8.93;;
23676;SDS011;31493;49.058;12.190;2023-04-07T00:55:19;15.75;;;8.80;;
23676;SDS011;31493;49.058;12.190;2023-04-07T00:57:46;14.60;;;8.82;;
23676;SDS011;31493;49.058;12.190;2023-04-07T01:00:15;14.10;;;8.65;;
23676;SDS011;31493;49.058;12.190;2023-04-07T01:02:44;13.50;;;8.73;;
23676;SDS011;31493;49.058;12.190;2023-04-07T01:05:20;14.55;;;9.02;;
23676;SDS011;31493;49.058;12.190;2023-04-07T01:07:54;16.48;;;8.50;;
23676;SDS011;31493;49.058;12.190;2023-04-07T01:10:27;13.85;;;8.93;;
23676;SDS011;31493;49.058;12.190;2023-04-07T01:13:01;11.57;;;8.15;;
23676;SDS011;31493;49.058;12.190;2023-04-07T01:15:33;13.85;;;8.55;;
23676;SDS011;31493;49.058;12.190;2023-04-07T01:18:05;14.90;;;9.02;;
23676;SDS011;31493;49.058;12.190;2023-04-07T01:20:38;14.93;;;8.90;;
23676;SDS011;31493;49.058;12.190;2023-04-07T01:23:08;15.57;;;9.43;;
23676;SDS011;31493;49.058;12.190;2023-04-07T01:25:52;17.02;;;8.98;;
23676;SDS011;31493;49.058;12.190;2023-04-07T01:28:43;14.02;;;8.80;;
23676;SDS011;31493;49.058;12.190;2023-04-07T01:31:23;11.70;;;8.32;;
23676;SDS011;31493;49.058;12.190;2023-04-07T01:33:52;18.98;;;8.82;;
23676;SDS011;31493;49.058;12.190;2023-04-07T01:36:22;16.70;;;9.57;;
23676;SDS011;31493;49.058;12.190;2023-04-07T01:38:52;15.60;;;8.90;;
23676;SDS011;31493;49.058;12.190;2023-04-07T01:41:20;13.50;;;8.95;;
23676;SDS011;31493;49.058;12.190;2023-04-07T01:43:48;18.90;;;9.20;;
23676;SDS011;31493;49.058;12.190;2023-04-07T01:48:46;14.75;;;9.13;;
23676;SDS011;31493;49.058;12.190;2023-04-07T01:51:14;17.40;;;8.98;;
23676;SDS011;31493;49.058;12.190;2023-04-07T01:53:43;14.55;;;8.50;;
23676;SDS011;31493;49.058;12.190;2023-04-07T01:56:11;14.02;;;8.30;;
23676;SDS011;31493;49.058;12.190;2023-04-07T01:58:38;13.23;;;8.52;;
23676;SDS011;31493;49.058;12.190;2023-04-07T02:01:06;12.52;;;8.32;;
23676;SDS011;31493;49.058;12.190;2023-04-07T02:03:35;14.48;;;8.68;;
23676;SDS011;31493;49.058;12.190;2023-04-07T02:06:11;12.38;;;7.63;;
23676;SDS011;31493;49.058;12.190;2023-04-07T02:08:41;14.50;;;8.85;;
23676;SDS011;31493;49.058;12.190;2023-04-07T02:11:12;14.18;;;9.02;;
23676;SDS011;31493;49.058;12.190;2023-04-07T02:13:43;13.30;;;8.60;;
23676;SDS011;31493;49.058;12.190;2023-04-07T02:16:11;15.00;;;8.73;;
23676;SDS011;31493;49.058;12.190;2023-04-07T02:18:39;12.02;;;8.38;;
23676;SDS011;31493;49.058;12.190;2023-04-07T02:21:07;13.32;;;8.40;;
23676;SDS011;31493;49.058;12.190;2023-04-07T02:23:37;14.60;;;8.73;;
23676;SDS011;31493;49.058;12.190;2023-04-07T02:26:04;15.77;;;8.43;;
23676;SDS011;31493;49.058;12.190;2023-04-07T02:28:31;13.38;;;8.20;;
23676;SDS011;31493;49.058;12.190;2023-04-07T02:30:58;15.30;;;9.20;;
23676;SDS011;31493;49.058;12.190;2023-04-07T02:33:25;15.55;;;9.10;;
23676;SDS011;31493;49.058;12.190;2023-04-07T02:35:52;13.07;;;8.82;;
23676;SDS011;31493;49.058;12.190;2023-04-07T02:38:19;14.55;;;9.00;;
23676;SDS011;31493;49.058;12.190;2023-04-07T02:40:47;12.98;;;8.85;;
23676;SDS011;31493;49.058;12.190;2023-04-07T02:43:14;13.55;;;8.30;;
23676;SDS011;31493;49.058;12.190;2023-04-07T02:45:43;12.27;;;8.52;;
23676;SDS011;31493;49.058;12.190;2023-04-07T02:48:10;21.92;;;10.10;;
23676;SDS011;31493;49.058;12.190;2023-04-07T02:50:37;18.52;;;11.07;;
23676;SDS011;31493;49.058;12.190;2023-04-07T02:53:06;32.60;;;14.60;;
23676;SDS011;31493;49.058;12.190;2023-04-07T02:55:33;34.67;;;15.55;;
23676;SDS011;31493;49.058;12.190;2023-04-07T02:58:02;32.67;;;15.40;;
23676;SDS011;31493;49.058;12.190;2023-04-07T03:00:29;28.60;;;13.50;;
23676;SDS011;31493;49.058;12.190;2023-04-07T03:02:56;20.30;;;11.38;;
23676;SDS011;31493;49.058;12.190;2023-04-07T03:05:23;21.70;;;11.80;;
23676;SDS011;31493;49.058;12.190;2023-04-07T03:07:50;19.58;;;10.50;;
23676;SDS011;31493;49.058;12.190;2023-04-07T03:10:17;22.48;;;11.10;;
23676;SDS011;31493;49.058;12.190;2023-04-07T03:12:44;18.75;;;10.27;;
23676;SDS011;31493;49.058;12.190;2023-04-07T03:15:13;18.50;;;10.65;;
23676;SDS011;31493;49.058;12.190;2023-04-07T03:17:40;15.90;;;10.30;;
23676;SDS011;31493;49.058;12.190;2023-04-07T03:20:07;18.77;;;9.95;;
23676;SDS011;31493;49.058;12.190;2023-04-07T03:22:34;15.18;;;9.18;;
23676;SDS011;31493;49.058;12.190;2023-04-07T03:25:01;16.40;;;9.30;;
23676;SDS011;31493;49.058;12.190;2023-04-07T03:27:28;16.98;;;9.27;;
23676;SDS011;31493;49.058;12.190;2023-04-07T03:29:55;16.20;;;9.25;;
23676;SDS011;31493;49.058;12.190;2023-04-07T03:32:24;14.93;;;8.98;;
23676;SDS011;31493;49.058;12.190;2023-04-07T03:34:51;20.55;;;10.35;;
23676;SDS011;31493;49.058;12.190;2023-04-07T03:37:18;18.30;;;10.27;;
23676;SDS011;31493;49.058;12.190;2023-04-07T03:39:45;17.50;;;10.55;;
23676;SDS011;31493;49.058;12.190;2023-04-07T03:42:12;15.43;;;10.27;;
23676;SDS011;31493;49.058;12.190;2023-04-07T03:44:40;14.95;;;8.88;;
23676;SDS011;31493;49.058;12.190;2023-04-07T03:47:07;14.27;;;8.90;;
23676;SDS011;31493;49.058;12.190;2023-04-07T03:49:35;17.35;;;9.55;;
23676;SDS011;31493;49.058;12.190;2023-04-07T03:52:03;14.93;;;9.38;;
23676;SDS011;31493;49.058;12.190;2023-04-07T03:54:30;14.25;;;9.80;;
23676;SDS011;31493;49.058;12.190;2023-04-07T03:56:59;19.83;;;10.35;;
23676;SDS011;31493;49.058;12.190;2023-04-07T03:59:27;17.50;;;9.80;;
23676;SDS011;31493;49.058;12.190;2023-04-07T04:01:54;15.65;;;8.98;;
23676;SDS011;31493;49.058;12.190;2023-04-07T04:04:21;14.35;;;9.10;;
23676;SDS011;31493;49.058;12.190;2023-04-07T04:06:50;14.43;;;9.38;;
23676;SDS011;31493;49.058;12.190;2023-04-07T04:09:17;13.57;;;8.75;;
23676;SDS011;31493;49.058;12.190;2023-04-07T04:11:45;13.70;;;9.35;;
23676;SDS011;31493;49.058;12.190;2023-04-07T04:14:12;16.80;;;9.77;;
23676;SDS011;31493;49.058;12.190;2023-04-07T04:16:39;17.17;;;9.10;;
23676;SDS011;31493;49.058;12.190;2023-04-07T04:19:06;14.52;;;9.50;;
23676;SDS011;31493;49.058;12.190;2023-04-07T04:21:33;14.27;;;9.63;;
23676;SDS011;31493;49.058;12.190;2023-04-07T04:24:01;13.50;;;9.18;;
23676;SDS011;31493;49.058;12.190;2023-04-07T04:28:56;14.00;;;9.40;;
23676;SDS011;31493;49.058;12.190;2023-04-07T04:31:23;15.88;;;9.30;;
23676;SDS011;31493;49.058;12.190;2023-04-07T04:33:50;16.13;;;10.77;;
23676;SDS011;31493;49.058;12.190;2023-04-07T04:36:17;15.93;;;10.32;;
23676;SDS011;31493;49.058;12.190;2023-04-07T04:38:44;16.50;;;10.52;;
23676;SDS011;31493;49.058;12.190;2023-04-07T04:41:13;14.77;;;9.52;;
23676;SDS011;31493;49.058;12.190;2023-04-07T04:46:07;13.05;;;9.15;;
23676;SDS011;31493;49.058;12.190;2023-04-07T04:48:35;13.63;;;9.25;;
23676;SDS011;31493;49.058;12.190;2023-04-07T04:51:02;14.57;;;8.85;;
23676;SDS011;31493;49.058;12.190;2023-04-07T04:53:29;15.82;;;9.27;;
23676;SDS011;31493;49.058;12.190;2023-04-07T04:55:56;15.30;;;9.07;;
23676;SDS011;31493;49.058;12.190;2023-04-07T04:58:24;14.55;;;8.90;;
23676;SDS011;31493;49.058;12.190;2023-04-07T05:00:52;11.90;;;8.13;;
23676;SDS011;31493;49.058;12.190;2023-04-07T05:03:22;14.50;;;8.60;;
23676;SDS011;31493;49.058;12.190;2023-04-07T05:05:50;11.52;;;7.88;;
23676;SDS011;31493;49.058;12.190;2023-04-07T05:08:17;14.43;;;8.43;;
23676;SDS011;31493;49.058;12.190;2023-04-07T05:10:45;12.38;;;9.00;;
23676;SDS011;31493;49.058;12.190;2023-04-07T05:13:12;14.50;;;8.35;;
23676;SDS011;31493;49.058;12.190;2023-04-07T05:15:40;11.77;;;7.93;;
23676;SDS011;31493;49.058;12.190;2023-04-07T05:18:08;13.50;;;7.82;;
23676;SDS011;31493;49.058;12.190;2023-04-07T05:20:35;12.60;;;8.30;;
23676;SDS011;31493;49.058;12.190;2023-04-07T05:23:02;12.52;;;7.82;;
23676;SDS011;31493;49.058;12.190;2023-04-07T05:25:29;12.38;;;8.15;;
23676;SDS011;31493;49.058;12.190;2023-04-07T05:27:56;13.27;;;7.47;;
23676;SDS011;31493;49.058;12.190;2023-04-07T05:30:23;14.88;;;8.20;;
23676;SDS011;31493;49.058;12.190;2023-04-07T05:32:52;11.70;;;8.00;;
23676;SDS011;31493;49.058;12.190;2023-04-07T05:37:46;12.32;;;7.57;;
23676;SDS011;31493;49.058;12.190;2023-04-07T05:40:13;11.05;;;7.53;;
23676;SDS011;31493;49.058;12.190;2023-04-07T05:42:40;10.80;;;6.90;;
23676;SDS011;31493;49.058;12.190;2023-04-07T05:45:08;11.18;;;7.22;;
23676;SDS011;31493;49.058;12.190;2023-04-07T05:47:36;13.70;;;7.38;;
23676;SDS011;31493;49.058;12.190;2023-04-07T05:50:05;14.07;;;6.95;;
23676;SDS011;31493;49.058;12.190;2023-04-07T05:52:32;10.40;;;7.10;;
23676;SDS011;31493;49.058;12.190;2023-04-07T05:54:59;13.98;;;7.20;;
23676;SDS011;31493;49.058;12.190;2023-04-07T05:57:27;11.55;;;7.18;;
23676;SDS011;31493;49.058;12.190;2023-04-07T05:59:54;10.85;;;6.85;;
23676;SDS011;31493;49.058;12.190;2023-04-07T06:02:21;10.18;;;7.13;;
23676;SDS011;31493;49.058;12.190;2023-04-07T06:04:48;11.68;;;7.68;;
23676;SDS011;31493;49.058;12.190;2023-04-07T06:07:16;9.20;;;6.93;;
23676;SDS011;31493;49.058;12.190;2023-04-07T06:09:43;11.50;;;7.60;;
23676;SDS011;31493;49.058;12.190;2023-04-07T06:12:10;14.13;;;7.85;;
23676;SDS011;31493;49.058;12.190;2023-04-07T06:14:38;9.38;;;6.68;;
23676;SDS011;31493;49.058;12.190;2023-04-07T06:17:05;11.15;;;7.28;;
23676;SDS011;31493;49.058;12.190;2023-04-07T06:19:32;12.25;;;7.35;;
23676;SDS011;31493;49.058;12.190;2023-04-07T06:21:59;11.95;;;7.30;;
23676;SDS011;31493;49.058;12.190;2023-04-07T06:24:27;10.85;;;7.07;;
23676;SDS011;31493;49.058;12.190;2023-04-07T06:26:54;12.93;;;7.30;;
23676;SDS011;31493;49.058;12.190;2023-04-07T06:29:22;9.82;;;6.88;;
23676;SDS011;31493;49.058;12.190;2023-04-07T06:31:49;12.27;;;7.40;;
23676;SDS011;31493;49.058;12.190;2023-04-07T06:34:16;11.75;;;7.13;;
23676;SDS011;31493;49.058;12.190;2023-04-07T06:36:43;12.23;;;7.43;;
23676;SDS011;31493;49.058;12.190;2023-04-07T06:39:10;11.18;;;7.30;;
23676;SDS011;31493;49.058;12.190;2023-04-07T06:41:38;12.32;;;7.80;;
23676;SDS011;31493;49.058;12.190;2023-04-07T06:44:08;13.50;;;8.63;;
23676;SDS011;31493;49.058;12.190;2023-04-07T06:46:35;15.65;;;9.25;;
23676;SDS011;31493;49.058;12.190;2023-04-07T06:49:02;15.68;;;8.93;;
23676;SDS011;31493;49.058;12.190;2023-04-07T06:51:29;14.50;;;8.82;;
23676;SDS011;31493;49.058;12.190;2023-04-07T06:53:57;16.00;;;9.00;;
23676;SDS011;31493;49.058;12.190;2023-04-07T06:56:25;14.10;;;8.77;;
23676;SDS011;31493;49.058;12.190;2023-04-07T06:58:53;13.48;;;9.35;;
23676;SDS011;31493;49.058;12.190;2023-04-07T07:01:20;15.52;;;9.30;;
23676;SDS011;31493;49.058;12.190;2023-04-07T07:03:47;13.93;;;9.32;;
23676;SDS011;31493;49.058;12.190;2023-04-07T07:06:14;16.17;;;9.70;;
23676;SDS011;31493;49.058;12.190;2023-04-07T07:08:41;17.23;;;10.77;;
23676;SDS011;31493;49.058;12.190;2023-04-07T07:11:08;21.73;;;10.93;;
23676;SDS011;31493;49.058;12.190;2023-04-07T07:13:35;15.85;;;10.50;;
23676;SDS011;31493;49.058;12.190;2023-04-07T07:16:05;15.98;;;9.38;;
23676;SDS011;31493;49.058;12.190;2023-04-07T07:18:32;16.55;;;10.30;;
23676;SDS011;31493;49.058;12.190;2023-04-07T07:20:59;15.65;;;10.18;;
23676;SDS011;31493;49.058;12.190;2023-04-07T07:23:27;15.75;;;10.02;;
23676;SDS011;31493;49.058;12.190;2023-04-07T07:25:54;17.43;;;10.13;;
23676;SDS011;31493;49.058;12.190;2023-04-07T07:28:22;17.45;;;10.43;;
23676;SDS011;31493;49.058;12.190;2023-04-07T07:30:49;19.23;;;10.90;;
23676;SDS011;31493;49.058;12.190;2023-04-07T07:33:17;16.90;;;10.68;;
23676;SDS011;31493;49.058;12.190;2023-04-07T07:35:44;16.80;;;10.65;;
23676;SDS011;31493;49.058;12.190;2023-04-07T07:38:11;17.08;;;10.68;;
23676;SDS011;31493;49.058;12.190;2023-04-07T07:40:38;16.90;;;11.25;;
23676;SDS011;31493;49.058;12.190;2023-04-07T07:43:05;17.35;;;11.38;;
23676;SDS011;31493;49.058;12.190;2023-04-07T07:45:32;19.52;;;12.30;;
23676;SDS011;31493;49.058;12.190;2023-04-07T07:48:00;16.13;;;10.00;;
23676;SDS011;31493;49.058;12.190;2023-04-07T07:50:28;18.00;;;11.45;;
23676;SDS011;31493;49.058;12.190;2023-04-07T07:52:55;17.88;;;11.18;;
23676;SDS011;31493;49.058;12.190;2023-04-07T07:55:23;16.38;;;11.52;;
23676;SDS011;31493;49.058;12.190;2023-04-07T07:57:50;16.45;;;10.70;;
23676;SDS011;31493;49.058;12.190;2023-04-07T08:00:17;17.67;;;11.15;;
23676;SDS011;31493;49.058;12.190;2023-04-07T08:02:44;18.27;;;11.45;;
23676;SDS011;31493;49.058;12.190;2023-04-07T08:05:11;18.13;;;11.23;;
23676;SDS011;31493;49.058;12.190;2023-04-07T08:07:39;18.90;;;11.88;;
23676;SDS011;31493;49.058;12.190;2023-04-07T08:10:08;19.48;;;11.23;;
23676;SDS011;31493;49.058;12.190;2023-04-07T08:12:35;18.63;;;12.43;;
23676;SDS011;31493;49.058;12.190;2023-04-07T08:15:02;19.08;;;12.55;;
23676;SDS011;31493;49.058;12.190;2023-04-07T08:17:29;17.40;;;12.40;;
23676;SDS011;31493;49.058;12.190;2023-04-07T08:19:57;20.33;;;12.70;;
23676;SDS011;31493;49.058;12.190;2023-04-07T08:22:24;18.83;;;12.50;;
23676;SDS011;31493;49.058;12.190;2023-04-07T08:24:52;19.40;;;13.05;;
23676;SDS011;31493;49.058;12.190;2023-04-07T08:27:19;23.63;;;12.52;;
23676;SDS011;31493;49.058;12.190;2023-04-07T08:29:49;23.90;;;12.43;;
23676;SDS011;31493;49.058;12.190;2023-04-07T08:32:24;16.67;;;11.68;;
23676;SDS011;31493;49.058;12.190;2023-04-07T08:34:54;17.85;;;12.15;;
23676;SDS011;31493;49.058;12.190;2023-04-07T08:37:21;20.02;;;12.45;;
23676;SDS011;31493;49.058;12.190;2023-04-07T08:39:48;16.77;;;11.73;;
23676;SDS011;31493;49.058;12.190;2023-04-07T08:42:17;19.08;;;12.02;;
23676;SDS011;31493;49.058;12.190;2023-04-07T08:44:45;19.13;;;12.35;;
23676;SDS011;31493;49.058;12.190;2023-04-07T08:47:13;15.88;;;10.65;;
23676;SDS011;31493;49.058;12.190;2023-04-07T08:49:43;18.95;;;12.13;;
23676;SDS011;31493;49.058;12.190;2023-04-07T08:52:11;22.58;;;13.73;;
23676;SDS011;31493;49.058;12.190;2023-04-07T08:54:42;19.75;;;12.70;;
23676;SDS011;31493;49.058;12.190;2023-04-07T08:57:09;17.40;;;12.63;;
23676;SDS011;31493;49.058;12.190;2023-04-07T08:59:38;16.98;;;12.05;;
23676;SDS011;31493;49.058;12.190;2023-04-07T09:02:09;17.20;;;12.05;;
23676;SDS011;31493;49.058;12.190;2023-04-07T09:04:36;18.88;;;12.13;;
23676;SDS011;31493;49.058;12.190;2023-04-07T09:07:04;18.60;;;12.30;;
23676;SDS011;31493;49.058;12.190;2023-04-07T09:09:31;20.27;;;12.48;;
23676;SDS011;31493;49.058;12.190;2023-04-07T09:11:57;21.25;;;13.23;;
23676;SDS011;31493;49.058;12.190;2023-04-07T09:14:25;20.77;;;12.48;;
23676;SDS011;31493;49.058;12.190;2023-04-07T09:16:54;18.10;;;12.45;;
23676;SDS011;31493;49.058;12.190;2023-04-07T09:19:23;18.02;;;12.48;;
23676;SDS011;31493;49.058;12.190;2023-04-07T09:21:51;23.60;;;13.27;;
23676;SDS011;31493;49.058;12.190;2023-04-07T09:24:22;20.75;;;13.57;;
23676;SDS011;31493;49.058;12.190;2023-04-07T09:26:50;20.63;;;13.45;;
23676;SDS011;31493;49.058;12.190;2023-04-07T09:29:18;21.05;;;13.20;;
23676;SDS011;31493;49.058;12.190;2023-04-07T09:34:25;23.30;;;12.82;;
23676;SDS011;31493;49.058;12.190;2023-04-07T09:36:53;23.85;;;13.27;;
23676;SDS011;31493;49.058;12.190;2023-04-07T09:39:21;21.67;;;14.48;;
23676;SDS011;31493;49.058;12.190;2023-04-07T09:41:49;24.52;;;14.07;;
23676;SDS011;31493;49.058;12.190;2023-04-07T09:44:16;22.35;;;13.98;;
23676;SDS011;31493;49.058;12.190;2023-04-07T09:46:47;22.02;;;14.43;;
23676;SDS011;31493;49.058;12.190;2023-04-07T09:49:15;19.25;;;13.55;;
23676;SDS011;31493;49.058;12.190;2023-04-07T09:51:52;19.75;;;13.43;;
23676;SDS011;31493;49.058;12.190;2023-04-07T09:54:30;24.45;;;14.27;;
23676;SDS011;31493;49.058;12.190;2023-04-07T09:56:59;19.65;;;13.48;;
23676;SDS011;31493;49.058;12.190;2023-04-07T09:59:27;18.67;;;12.50;;
23676;SDS011;31493;49.058;12.190;2023-04-07T10:01:55;23.52;;;13.20;;
23676;SDS011;31493;49.058;12.190;2023-04-07T10:04:22;18.92;;;13.05;;
23676;SDS011;31493;49.058;12.190;2023-04-07T10:06:51;20.90;;;12.80;;
23676;SDS011;31493;49.058;12.190;2023-04-07T10:09:19;19.83;;;13.45;;
23676;SDS011;31493;49.058;12.190;2023-04-07T10:11:49;20.58;;;13.43;;
23676;SDS011;31493;49.058;12.190;2023-04-07T10:14:17;20.05;;;13.35;;
23676;SDS011;31493;49.058;12.190;2023-04-07T10:16:45;20.40;;;12.85;;
23676;SDS011;31493;49.058;12.190;2023-04-07T10:19:13;18.20;;;12.48;;
23676;SDS011;31493;49.058;12.190;2023-04-07T10:21:41;21.13;;;13.13;;
23676;SDS011;31493;49.058;12.190;2023-04-07T10:24:14;20.30;;;13.15;;
23676;SDS011;31493;49.058;12.190;2023-04-07T10:26:58;18.42;;;12.52;;
23676;SDS011;31493;49.058;12.190;2023-04-07T10:29:30;18.27;;;13.05;;
23676;SDS011;31493;49.058;12.190;2023-04-07T10:32:02;21.27;;;14.35;;
23676;SDS011;31493;49.058;12.190;2023-04-07T10:37:22;20.58;;;12.82;;
23676;SDS011;31493;49.058;12.190;2023-04-07T10:40:26;20.05;;;13.07;;
23676;SDS011;31493;49.058;12.190;2023-04-07T10:42:55;20.23;;;13.05;;
23676;SDS011;31493;49.058;12.190;2023-04-07T10:48:21;20.15;;;13.88;;
23676;SDS011;31493;49.058;12.190;2023-04-07T10:51:10;18.83;;;12.43;;
23676;SDS011;31493;49.058;12.190;2023-04-07T10:59:36;19.80;;;13.15;;
23676;SDS011;31493;49.058;12.190;2023-04-07T11:05:00;18.55;;;12.50;;
23676;SDS011;31493;49.058;12.190;2023-04-07T11:07:47;18.50;;;12.93;;
23676;SDS011;31493;49.058;12.190;2023-04-07T11:10:16;20.50;;;13.13;;
23676;SDS011;31493;49.058;12.190;2023-04-07T11:12:57;20.50;;;13.27;;
23676;SDS011;31493;49.058;12.190;2023-04-07T11:15:32;20.17;;;11.93;;
23676;SDS011;31493;49.058;12.190;2023-04-07T11:18:07;20.08;;;13.57;;
23676;SDS011;31493;49.058;12.190;2023-04-07T11:20:39;18.73;;;12.70;;
23676;SDS011;31493;49.058;12.190;2023-04-07T11:23:07;16.75;;;12.50;;
23676;SDS011;31493;49.058;12.190;2023-04-07T11:25:35;18.95;;;13.52;;
23676;SDS011;31493;49.058;12.190;2023-04-07T11:28:04;20.10;;;13.30;;
23676;SDS011;31493;49.058;12.190;2023-04-07T11:30:31;17.92;;;12.88;;
23676;SDS011;31493;49.058;12.190;2023-04-07T11:32:58;16.75;;;11.85;;
23676;SDS011;31493;49.058;12.190;2023-04-07T11:35:25;16.25;;;11.68;;
23676;SDS011;31493;49.058;12.190;2023-04-07T11:37:56;24.70;;;13.73;;
23676;SDS011;31493;49.058;12.190;2023-04-07T11:40:33;20.95;;;11.65;;
23676;SDS011;31493;49.058;12.190;2023-04-07T11:43:03;19.50;;;12.70;;
23676;SDS011;31493;49.058;12.190;2023-04-07T11:45:41;16.60;;;10.68;;
23676;SDS011;31493;49.058;12.190;2023-04-07T11:50:55;16.65;;;10.45;;
23676;SDS011;31493;49.058;12.190;2023-04-07T11:53:25;15.95;;;11.23;;
23676;SDS011;31493;49.058;12.190;2023-04-07T11:56:03;16.20;;;10.63;;
23676;SDS011;31493;49.058;12.190;2023-04-07T11:58:33;17.35;;;11.32;;
23676;SDS011;31493;49.058;12.190;2023-04-07T12:01:01;18.42;;;11.85;;
23676;SDS011;31493;49.058;12.190;2023-04-07T12:03:31;17.80;;;11.40;;
23676;SDS011;31493;49.058;12.190;2023-04-07T12:05:58;16.42;;;10.98;;
23676;SDS011;31493;49.058;12.190;2023-04-07T12:08:38;15.02;;;10.43;;
23676;SDS011;31493;49.058;12.190;2023-04-07T12:11:06;16.98;;;11.95;;
23676;SDS011;31493;49.058;12.190;2023-04-07T12:13:35;17.10;;;11.45;;
23676;SDS011;31493;49.058;12.190;2023-04-07T12:16:03;18.15;;;11.52;;
23676;SDS011;31493;49.058;12.190;2023-04-07T12:18:30;18.17;;;11.10;;
23676;SDS011;31493;49.058;12.190;2023-04-07T12:20:58;14.07;;;10.68;;
23676;SDS011;31493;49.058;12.190;2023-04-07T12:23:25;16.52;;;11.40;;
23676;SDS011;31493;49.058;12.190;2023-04-07T12:25:52;15.77;;;10.50;;
23676;SDS011;31493;49.058;12.190;2023-04-07T12:28:19;17.33;;;10.63;;
23676;SDS011;31493;49.058;12.190;2023-04-07T12:30:47;14.15;;;10.45;;
23676;SDS011;31493;49.058;12.190;2023-04-07T12:33:14;17.77;;;11.30;;
23676;SDS011;31493;49.058;12.190;2023-04-07T12:35:41;14.43;;;10.98;;
23676;SDS011;31493;49.058;12.190;2023-04-07T12:38:08;14.20;;;10.43;;
23676;SDS011;31493;49.058;12.190;2023-04-07T12:40:35;15.13;;;10.68;;
23676;SDS011;31493;49.058;12.190;2023-04-07T12:43:03;14.07;;;11.05;;
23676;SDS011;31493;49.058;12.190;2023-04-07T12:45:30;14.63;;;11.00;;
23676;SDS011;31493;49.058;12.190;2023-04-07T12:47:59;15.80;;;10.98;;
23676;SDS011;31493;49.058;12.190;2023-04-07T12:50:26;15.50;;;10.45;;
23676;SDS011;31493;49.058;12.190;2023-04-07T12:52:53;14.70;;;10.15;;
23676;SDS011;31493;49.058;12.190;2023-04-07T12:55:21;14.93;;;10.55;;
23676;SDS011;31493;49.058;12.190;2023-04-07T12:57:48;14.80;;;10.45;;
23676;SDS011;31493;49.058;12.190;2023-04-07T13:00:15;15.13;;;10.18;;
23676;SDS011;31493;49.058;12.190;2023-04-07T13:02:42;15.38;;;10.27;;
23676;SDS011;31493;49.058;12.190;2023-04-07T13:05:10;19.00;;;10.57;;
23676;SDS011;31493;49.058;12.190;2023-04-07T13:07:37;16.42;;;11.40;;
23676;SDS011;31493;49.058;12.190;2023-04-07T13:10:05;15.52;;;10.70;;
23676;SDS011;31493;49.058;12.190;2023-04-07T13:15:00;16.17;;;11.52;;
23676;SDS011;31493;49.058;12.190;2023-04-07T13:17:28;15.15;;;10.77;;
23676;SDS011;31493;49.058;12.190;2023-04-07T13:19:55;18.20;;;11.25;;
23676;SDS011;31493;49.058;12.190;2023-04-07T13:22:23;16.50;;;11.20;;
23676;SDS011;31493;49.058;12.190;2023-04-07T13:24:50;14.63;;;10.05;;
23676;SDS011;31493;49.058;12.190;2023-04-07T13:27:17;18.05;;;12.10;;
23676;SDS011;31493;49.058;12.190;2023-04-07T13:29:44;17.23;;;11.52;;
23676;SDS011;31493;49.058;12.190;2023-04-07T13:32:11;17.92;;;11.98;;
23676;SDS011;31493;49.058;12.190;2023-04-07T13:34:39;18.00;;;12.57;;
23676;SDS011;31493;49.058;12.190;2023-04-07T13:37:07;15.25;;;11.75;;
23676;SDS011;31493;49.058;12.190;2023-04-07T13:39:35;19.25;;;12.38;;
23676;SDS011;31493;49.058;12.190;2023-04-07T13:42:02;17.45;;;12.32;;
23676;SDS011;31493;49.058;12.190;2023-04-07T13:44:31;17.25;;;11.77;;
23676;SDS011;31493;49.058;12.190;2023-04-07T13:46:59;16.80;;;12.18;;
23676;SDS011;31493;49.058;12.190;2023-04-07T13:49:26;15.45;;;11.80;;
23676;SDS011;31493;49.058;12.190;2023-04-07T13:51:53;16.75;;;11.38;;
23676;SDS011;31493;49.058;12.190;2023-04-07T13:54:20;14.38;;;11.55;;
23676;SDS011;31493;49.058;12.190;2023-04-07T13:56:49;16.15;;;11.35;;
23676;SDS011;31493;49.058;12.190;2023-04-07T13:59:17;15.55;;;11.32;;
23676;SDS011;31493;49.058;12.190;2023-04-07T14:01:44;15.25;;;11.10;;
23676;SDS011;31493;49.058;12.190;2023-04-07T14:04:11;15.50;;;11.85;;
23676;SDS011;31493;49.058;12.190;2023-04-07T14:06:39;18.02;;;12.27;;
23676;SDS011;31493;49.058;12.190;2023-04-07T14:09:06;13.77;;;10.77;;
23676;SDS011;31493;49.058;12.190;2023-04-07T14:11:34;19.02;;;12.10;;
23676;SDS011;31493;49.058;12.190;2023-04-07T14:14:03;14.88;;;11.43;;
23676;SDS011;31493;49.058;12.190;2023-04-07T14:16:30;17.52;;;10.95;;
23676;SDS011;31493;49.058;12.190;2023-04-07T14:18:57;17.13;;;11.55;;
23676;SDS011;31493;49.058;12.190;2023-04-07T14:21:24;16.38;;;11.20;;
23676;SDS011;31493;49.058;12.190;2023-04-07T14:23:52;14.15;;;11.15;;
23676;SDS011;31493;49.058;12.190;2023-04-07T14:26:19;15.20;;;10.98;;
23676;SDS011;31493;49.058;12.190;2023-04-07T14:28:46;14.93;;;11.38;;
23676;SDS011;31493;49.058;12.190;2023-04-07T14:31:15;15.13;;;10.65;;
23676;SDS011;31493;49.058;12.190;2023-04-07T14:33:42;19.02;;;11.50;;
23676;SDS011;31493;49.058;12.190;2023-04-07T14:36:10;15.38;;;10.27;;
23676;SDS011;31493;49.058;12.190;2023-04-07T14:38:37;14.57;;;10.27;;
23676;SDS011;31493;49.058;12.190;2023-04-07T14:41:04;16.02;;;11.20;;
23676;SDS011;31493;49.058;12.190;2023-04-07T14:43:31;13.73;;;10.75;;
23676;SDS011;31493;49.058;12.190;2023-04-07T14:45:58;16.17;;;11.50;;
23676;SDS011;31493;49.058;12.190;2023-04-07T14:48:26;16.38;;;11.30;;
23676;SDS011;31493;49.058;12.190;2023-04-07T14:50:53;16.85;;;11.85;;
23676;SDS011;31493;49.058;12.190;2023-04-07T14:53:21;16.45;;;11.15;;